BAW323 LFMN-EGLL
Flight info
| Callsign | BAW323 |
|---|---|
| Flight time | 1h 35m |
| Altitude | 36000 |
| Route | BADOD DCT NEDRU DCT LTP DCT BULOL DCT IDAVO DCT BAGBI DCT SIZZA DCT LAULY DCT BRY DCT CLM DCT KOPOR DCT ABNUR DCT DIMAL DCT ALESO |
| Aircraft | A20N/M-SDE2E3FGHIRWXY/LB1 |
Departure
| Time | 2026-05-05 13:52 |
|---|---|
| Airport | Nice-Côte d'Azur Airport (LFMN) |
Arrival
| Time | 2026-05-05 15:28 |
|---|---|
| Airport | London Heathrow Airport (EGLL) |
| Time | Latitude | Longitude | Altitude | Speed | Heading |
|---|---|---|---|---|---|
| 2026-05-05 13:21 | 43.65814 | 7.20533 | 21 ft | 0 kts | 315° |
| 2026-05-05 13:39 | 43.65802 | 7.20550 | 23 ft | 4 kts | 314° |
| 2026-05-05 13:39 | 43.65782 | 7.20577 | 23 ft | 4 kts | 316° |
| 2026-05-05 13:40 | 43.65764 | 7.20601 | 21 ft | 3 kts | 322° |
| 2026-05-05 13:40 | 43.65752 | 7.20611 | 21 ft | 2 kts | 354° |
| 2026-05-05 13:40 | 43.65741 | 7.20608 | 21 ft | 3 kts | 43° |
| 2026-05-05 13:40 | 43.65743 | 7.20610 | 21 ft | 4 kts | 45° |
| 2026-05-05 13:41 | 43.65752 | 7.20624 | 21 ft | 0 kts | 45° |
| 2026-05-05 13:44 | 43.65753 | 7.20625 | 21 ft | 1 kts | 45° |
| 2026-05-05 13:44 | 43.65770 | 7.20647 | 21 ft | 6 kts | 45° |
| 2026-05-05 13:45 | 43.65805 | 7.20696 | 21 ft | 8 kts | 45° |
| 2026-05-05 13:45 | 43.65846 | 7.20752 | 21 ft | 8 kts | 45° |
| 2026-05-05 13:45 | 43.65864 | 7.20826 | 21 ft | 9 kts | 114° |
| 2026-05-05 13:45 | 43.65807 | 7.20861 | 21 ft | 10 kts | 170° |
| 2026-05-05 13:46 | 43.65736 | 7.20847 | 23 ft | 11 kts | 219° |
| 2026-05-05 13:46 | 43.65673 | 7.20760 | 20 ft | 14 kts | 224° |
| 2026-05-05 13:46 | 43.65641 | 7.20716 | 20 ft | 5 kts | 224° |
| 2026-05-05 13:46 | 43.65600 | 7.20675 | 21 ft | 9 kts | 222° |
| 2026-05-05 13:47 | 43.65603 | 7.20654 | 20 ft | 0 kts | 337° |
| 2026-05-05 13:47 | 43.65606 | 7.20660 | 20 ft | 1 kts | 38° |
| 2026-05-05 13:47 | 43.65631 | 7.20701 | 20 ft | 8 kts | 45° |
| 2026-05-05 13:47 | 43.65677 | 7.20767 | 20 ft | 10 kts | 52° |
| 2026-05-05 13:48 | 43.65681 | 7.20862 | 23 ft | 11 kts | 125° |
| 2026-05-05 13:48 | 43.65611 | 7.20905 | 21 ft | 12 kts | 168° |
| 2026-05-05 13:48 | 43.65524 | 7.20927 | 21 ft | 14 kts | 175° |
| 2026-05-05 13:48 | 43.65445 | 7.20943 | 21 ft | 10 kts | 170° |
| 2026-05-05 13:49 | 43.65366 | 7.20955 | 21 ft | 12 kts | 187° |
| 2026-05-05 13:49 | 43.65296 | 7.20881 | 21 ft | 14 kts | 224° |
| 2026-05-05 13:49 | 43.65219 | 7.20776 | 20 ft | 17 kts | 224° |
| 2026-05-05 13:49 | 43.65131 | 7.20658 | 21 ft | 19 kts | 224° |
| 2026-05-05 13:50 | 43.65037 | 7.20526 | 21 ft | 20 kts | 225° |
| 2026-05-05 13:50 | 43.64937 | 7.20387 | 21 ft | 21 kts | 225° |
| 2026-05-05 13:50 | 43.64857 | 7.20278 | 21 ft | 10 kts | 225° |
| 2026-05-05 13:50 | 43.64800 | 7.20200 | 21 ft | 13 kts | 223° |
| 2026-05-05 13:51 | 43.64719 | 7.20206 | 22 ft | 13 kts | 135° |
| 2026-05-05 13:51 | 43.64707 | 7.20299 | 25 ft | 11 kts | 46° |
| 2026-05-05 13:51 | 43.64766 | 7.20379 | 23 ft | 16 kts | 44° |
| 2026-05-05 13:51 | 43.64967 | 7.20653 | 25 ft | 74 kts | 45° |
| 2026-05-05 13:52 | 43.65475 | 7.21355 | 25 ft | 130 kts | 46° |
| 2026-05-05 13:52 | 43.66223 | 7.22377 | 141 ft | 162 kts | 48° |
| 2026-05-05 13:52 | 43.67011 | 7.23465 | 813 ft | 163 kts | 52° |
| 2026-05-05 13:52 | 43.67518 | 7.24897 | 1172 ft | 181 kts | 83° |
| 2026-05-05 13:53 | 43.67351 | 7.26631 | 1724 ft | 186 kts | 116° |
| 2026-05-05 13:53 | 43.66505 | 7.27996 | 2321 ft | 189 kts | 149° |
| 2026-05-05 13:53 | 43.65209 | 7.28620 | 2498 ft | 217 kts | 174° |
| 2026-05-05 13:53 | 43.63599 | 7.28776 | 2713 ft | 244 kts | 176° |
| 2026-05-05 13:54 | 43.61899 | 7.29343 | 3165 ft | 256 kts | 153° |
| 2026-05-05 13:54 | 43.60429 | 7.30702 | 3449 ft | 257 kts | 147° |
| 2026-05-05 13:54 | 43.58793 | 7.31546 | 4222 ft | 247 kts | 178° |
| 2026-05-05 13:54 | 43.57184 | 7.31134 | 5419 ft | 229 kts | 209° |
| 2026-05-05 13:55 | 43.55984 | 7.29828 | 6532 ft | 217 kts | 230° |
| 2026-05-05 13:55 | 43.55259 | 7.28018 | 7326 ft | 219 kts | 252° |
| 2026-05-05 13:55 | 43.54987 | 7.25910 | 7953 ft | 229 kts | 267° |
| 2026-05-05 13:55 | 43.55180 | 7.23684 | 8595 ft | 240 kts | 285° |
| 2026-05-05 13:56 | 43.55979 | 7.21606 | 9266 ft | 253 kts | 306° |
| 2026-05-05 13:56 | 43.57093 | 7.19675 | 9927 ft | 262 kts | 305° |
| 2026-05-05 13:56 | 43.58246 | 7.17665 | 10537 ft | 271 kts | 304° |
| 2026-05-05 13:56 | 43.59426 | 7.15595 | 11157 ft | 279 kts | 304° |
| 2026-05-05 13:57 | 43.60652 | 7.13467 | 11781 ft | 288 kts | 307° |
| 2026-05-05 13:57 | 43.62090 | 7.11534 | 12426 ft | 298 kts | 316° |
| 2026-05-05 13:57 | 43.63709 | 7.09720 | 13080 ft | 302 kts | 316° |
| 2026-05-05 13:57 | 43.65341 | 7.07874 | 13744 ft | 305 kts | 315° |
| 2026-05-05 13:58 | 43.66989 | 7.05996 | 14341 ft | 308 kts | 315° |
| 2026-05-05 13:58 | 43.68626 | 7.04126 | 14930 ft | 312 kts | 315° |
| 2026-05-05 13:58 | 43.70311 | 7.02199 | 15553 ft | 316 kts | 315° |
| 2026-05-05 13:58 | 43.72014 | 7.00249 | 16193 ft | 321 kts | 315° |
| 2026-05-05 13:59 | 43.75493 | 6.96267 | 17478 ft | 326 kts | 314° |
| 2026-05-05 13:59 | 43.77218 | 6.94293 | 18135 ft | 326 kts | 314° |
| 2026-05-05 14:00 | 43.80723 | 6.90270 | 19296 ft | 329 kts | 313° |
| 2026-05-05 14:00 | 43.81894 | 6.88923 | 19625 ft | 332 kts | 313° |
| 2026-05-05 14:00 | 43.84291 | 6.86163 | 20277 ft | 338 kts | 313° |
| 2026-05-05 14:00 | 43.86108 | 6.84072 | 20774 ft | 341 kts | 313° |
| 2026-05-05 14:01 | 43.87943 | 6.81958 | 21287 ft | 344 kts | 313° |
| 2026-05-05 14:01 | 43.89791 | 6.79826 | 21802 ft | 347 kts | 313° |
| 2026-05-05 14:01 | 43.91656 | 6.77675 | 22337 ft | 349 kts | 312° |
| 2026-05-05 14:01 | 43.93538 | 6.75527 | 22889 ft | 352 kts | 315° |
| 2026-05-05 14:02 | 43.95573 | 6.73643 | 23438 ft | 361 kts | 322° |
| 2026-05-05 14:02 | 43.97791 | 6.71891 | 23930 ft | 363 kts | 322° |
| 2026-05-05 14:02 | 43.99981 | 6.70141 | 24381 ft | 364 kts | 322° |
| 2026-05-05 14:02 | 44.02178 | 6.68378 | 24858 ft | 365 kts | 321° |
| 2026-05-05 14:03 | 44.04379 | 6.66609 | 25350 ft | 365 kts | 321° |
| 2026-05-05 14:03 | 44.06579 | 6.64839 | 25800 ft | 366 kts | 321° |
| 2026-05-05 14:03 | 44.08762 | 6.63080 | 26167 ft | 369 kts | 321° |
| 2026-05-05 14:03 | 44.10987 | 6.61287 | 26554 ft | 370 kts | 321° |
| 2026-05-05 14:04 | 44.13226 | 6.59482 | 26933 ft | 373 kts | 320° |
| 2026-05-05 14:04 | 44.15480 | 6.57663 | 27335 ft | 375 kts | 320° |
| 2026-05-05 14:04 | 44.17737 | 6.55842 | 27733 ft | 375 kts | 320° |
| 2026-05-05 14:04 | 44.20002 | 6.54013 | 28151 ft | 376 kts | 320° |
| 2026-05-05 14:05 | 44.22266 | 6.52183 | 28561 ft | 377 kts | 320° |
| 2026-05-05 14:05 | 44.24534 | 6.50346 | 28970 ft | 377 kts | 320° |
| 2026-05-05 14:05 | 44.26808 | 6.48503 | 29369 ft | 379 kts | 319° |
| 2026-05-05 14:05 | 44.29103 | 6.46637 | 29659 ft | 383 kts | 319° |
| 2026-05-05 14:06 | 44.31421 | 6.44753 | 29948 ft | 387 kts | 319° |
| 2026-05-05 14:06 | 44.33758 | 6.42852 | 30201 ft | 390 kts | 319° |
| 2026-05-05 14:06 | 44.36111 | 6.40940 | 30455 ft | 391 kts | 319° |
| 2026-05-05 14:06 | 44.38456 | 6.39034 | 30694 ft | 390 kts | 319° |
| 2026-05-05 14:07 | 44.40771 | 6.37150 | 30939 ft | 389 kts | 319° |
| 2026-05-05 14:07 | 44.43113 | 6.35240 | 31185 ft | 389 kts | 319° |
| 2026-05-05 14:07 | 44.45453 | 6.33330 | 31431 ft | 389 kts | 319° |
| 2026-05-05 14:07 | 44.47795 | 6.31416 | 31702 ft | 391 kts | 319° |
| 2026-05-05 14:08 | 44.50146 | 6.29490 | 31958 ft | 392 kts | 319° |
| 2026-05-05 14:08 | 44.52498 | 6.27562 | 32219 ft | 393 kts | 319° |
| 2026-05-05 14:08 | 44.54862 | 6.25625 | 32477 ft | 393 kts | 319° |
| 2026-05-05 14:08 | 44.57226 | 6.23686 | 32748 ft | 393 kts | 319° |
| 2026-05-05 14:09 | 44.59590 | 6.21744 | 33019 ft | 394 kts | 319° |
| 2026-05-05 14:09 | 44.61953 | 6.19802 | 33269 ft | 393 kts | 319° |
| 2026-05-05 14:09 | 44.64317 | 6.17857 | 33486 ft | 394 kts | 319° |
| 2026-05-05 14:09 | 44.66679 | 6.15911 | 33716 ft | 394 kts | 319° |
| 2026-05-05 14:10 | 44.69051 | 6.13955 | 33929 ft | 395 kts | 319° |
| 2026-05-05 14:10 | 44.71421 | 6.11998 | 34119 ft | 396 kts | 319° |
| 2026-05-05 14:10 | 44.73804 | 6.10028 | 34264 ft | 398 kts | 319° |
| 2026-05-05 14:10 | 44.76198 | 6.08044 | 34342 ft | 401 kts | 319° |
| 2026-05-05 14:11 | 44.81057 | 6.04010 | 34503 ft | 410 kts | 319° |
| 2026-05-05 14:11 | 44.86009 | 5.99903 | 34646 ft | 420 kts | 320° |
| 2026-05-05 14:12 | 44.91104 | 5.95666 | 34807 ft | 430 kts | 320° |
| 2026-05-05 14:12 | 44.96310 | 5.91332 | 34957 ft | 439 kts | 320° |
| 2026-05-05 14:13 | 45.01612 | 5.86909 | 35088 ft | 446 kts | 321° |
| 2026-05-05 14:13 | 45.06986 | 5.82412 | 35251 ft | 452 kts | 321° |
| 2026-05-05 14:14 | 45.12337 | 5.77688 | 35465 ft | 453 kts | 319° |
| 2026-05-05 14:14 | 45.14966 | 5.75244 | 35712 ft | 451 kts | 319° |
| 2026-05-05 14:14 | 45.17565 | 5.72829 | 35837 ft | 453 kts | 319° |
| 2026-05-05 14:15 | 45.22897 | 5.67905 | 35880 ft | 454 kts | 320° |
| 2026-05-05 14:15 | 45.28163 | 5.63065 | 35882 ft | 454 kts | 320° |
| 2026-05-05 14:16 | 45.33465 | 5.58182 | 35883 ft | 454 kts | 320° |
| 2026-05-05 14:16 | 45.38774 | 5.53280 | 35886 ft | 455 kts | 320° |
| 2026-05-05 14:17 | 45.44086 | 5.48366 | 35881 ft | 455 kts | 320° |
| 2026-05-05 14:17 | 45.49493 | 5.43636 | 35877 ft | 459 kts | 327° |
| 2026-05-05 14:18 | 45.55371 | 5.39930 | 35867 ft | 462 kts | 330° |
| 2026-05-05 14:18 | 45.61232 | 5.36289 | 35871 ft | 462 kts | 330° |
| 2026-05-05 14:19 | 45.67127 | 5.32622 | 35863 ft | 463 kts | 331° |
| 2026-05-05 14:19 | 45.73043 | 5.28942 | 35876 ft | 463 kts | 331° |
| 2026-05-05 14:20 | 45.78968 | 5.25250 | 35887 ft | 464 kts | 331° |
| 2026-05-05 14:20 | 45.84894 | 5.21549 | 35884 ft | 464 kts | 331° |
| 2026-05-05 14:21 | 45.90821 | 5.17839 | 35883 ft | 465 kts | 332° |
| 2026-05-05 14:21 | 45.96748 | 5.14119 | 35864 ft | 465 kts | 332° |
| 2026-05-05 14:22 | 46.02686 | 5.10385 | 35861 ft | 465 kts | 332° |
| 2026-05-05 14:22 | 46.08578 | 5.06660 | 35859 ft | 466 kts | 332° |
| 2026-05-05 14:23 | 46.14509 | 5.02880 | 35860 ft | 466 kts | 332° |
| 2026-05-05 14:23 | 46.20445 | 4.99091 | 35855 ft | 466 kts | 332° |
| 2026-05-05 14:24 | 46.26386 | 4.95291 | 35854 ft | 467 kts | 332° |
| 2026-05-05 14:24 | 46.32337 | 4.91478 | 35854 ft | 468 kts | 332° |
| 2026-05-05 14:25 | 46.37288 | 4.88299 | 35860 ft | 468 kts | 332° |
| 2026-05-05 14:25 | 46.43240 | 4.84469 | 35856 ft | 468 kts | 332° |
| 2026-05-05 14:26 | 46.49209 | 4.80618 | 35855 ft | 469 kts | 333° |
| 2026-05-05 14:26 | 46.55168 | 4.76765 | 35853 ft | 469 kts | 333° |
| 2026-05-05 14:27 | 46.61101 | 4.72920 | 35852 ft | 470 kts | 333° |
| 2026-05-05 14:27 | 46.67068 | 4.69043 | 35854 ft | 470 kts | 333° |
| 2026-05-05 14:28 | 46.73049 | 4.65148 | 35854 ft | 470 kts | 333° |
| 2026-05-05 14:28 | 46.79034 | 4.61241 | 35853 ft | 471 kts | 333° |
| 2026-05-05 14:29 | 46.85023 | 4.57332 | 35851 ft | 471 kts | 333° |
| 2026-05-05 14:29 | 46.91023 | 4.53438 | 35848 ft | 471 kts | 333° |
| 2026-05-05 14:30 | 46.96980 | 4.49559 | 35842 ft | 471 kts | 333° |
| 2026-05-05 14:30 | 47.02967 | 4.45649 | 35842 ft | 471 kts | 333° |
| 2026-05-05 14:31 | 47.08951 | 4.41729 | 35841 ft | 471 kts | 334° |
| 2026-05-05 14:31 | 47.14927 | 4.37806 | 35840 ft | 471 kts | 334° |
| 2026-05-05 14:32 | 47.20906 | 4.33870 | 35837 ft | 470 kts | 334° |
| 2026-05-05 14:32 | 47.26868 | 4.29936 | 35827 ft | 470 kts | 334° |
| 2026-05-05 14:33 | 47.32829 | 4.25993 | 35822 ft | 469 kts | 334° |
| 2026-05-05 14:33 | 47.38714 | 4.22090 | 35816 ft | 468 kts | 334° |
| 2026-05-05 14:34 | 47.44658 | 4.18140 | 35811 ft | 468 kts | 334° |
| 2026-05-05 14:34 | 47.50594 | 4.14184 | 35805 ft | 468 kts | 334° |
| 2026-05-05 14:35 | 47.56530 | 4.10220 | 35801 ft | 468 kts | 334° |
| 2026-05-05 14:35 | 47.62474 | 4.06249 | 35799 ft | 468 kts | 334° |
| 2026-05-05 14:36 | 47.68416 | 4.02271 | 35799 ft | 468 kts | 334° |
| 2026-05-05 14:36 | 47.74316 | 3.98310 | 35800 ft | 468 kts | 334° |
| 2026-05-05 14:37 | 47.80249 | 3.94317 | 35798 ft | 468 kts | 334° |
| 2026-05-05 14:37 | 47.86181 | 3.90313 | 35802 ft | 468 kts | 334° |
| 2026-05-05 14:38 | 47.92120 | 3.86295 | 35799 ft | 468 kts | 334° |
| 2026-05-05 14:38 | 47.98050 | 3.82273 | 35787 ft | 467 kts | 334° |
| 2026-05-05 14:39 | 48.03943 | 3.78265 | 35792 ft | 465 kts | 334° |
| 2026-05-05 14:39 | 48.09814 | 3.74263 | 35789 ft | 466 kts | 334° |
| 2026-05-05 14:40 | 48.15424 | 3.69441 | 35789 ft | 464 kts | 322° |
| 2026-05-05 14:40 | 48.20174 | 3.62960 | 35792 ft | 462 kts | 311° |
| 2026-05-05 14:41 | 48.24544 | 3.55863 | 35794 ft | 463 kts | 311° |
| 2026-05-05 14:41 | 48.28930 | 3.48755 | 35799 ft | 464 kts | 311° |
| 2026-05-05 14:42 | 48.33275 | 3.41666 | 35790 ft | 464 kts | 311° |
| 2026-05-05 14:42 | 48.37653 | 3.34562 | 35787 ft | 462 kts | 315° |
| 2026-05-05 14:43 | 48.42733 | 3.28644 | 35791 ft | 464 kts | 329° |
| 2026-05-05 14:43 | 48.48579 | 3.24491 | 35792 ft | 464 kts | 337° |
| 2026-05-05 14:44 | 48.54523 | 3.20681 | 35791 ft | 464 kts | 337° |
| 2026-05-05 14:44 | 48.60431 | 3.16884 | 35797 ft | 464 kts | 337° |
| 2026-05-05 14:45 | 48.66403 | 3.13046 | 35799 ft | 463 kts | 337° |
| 2026-05-05 14:45 | 48.72307 | 3.09246 | 35800 ft | 464 kts | 337° |
| 2026-05-05 14:46 | 48.78263 | 3.05403 | 35805 ft | 464 kts | 337° |
| 2026-05-05 14:46 | 48.84197 | 3.01500 | 35805 ft | 464 kts | 333° |
| 2026-05-05 14:47 | 48.89830 | 2.96677 | 35818 ft | 465 kts | 330° |
| 2026-05-05 14:47 | 48.95418 | 2.91813 | 35822 ft | 465 kts | 330° |
| 2026-05-05 14:48 | 49.01028 | 2.86909 | 35823 ft | 465 kts | 330° |
| 2026-05-05 14:48 | 49.06635 | 2.81984 | 35826 ft | 464 kts | 329° |
| 2026-05-05 14:49 | 49.12234 | 2.77049 | 35826 ft | 464 kts | 329° |
| 2026-05-05 14:49 | 49.17779 | 2.72150 | 35822 ft | 463 kts | 329° |
| 2026-05-05 14:50 | 49.23370 | 2.67197 | 35819 ft | 463 kts | 329° |
| 2026-05-05 14:50 | 49.28953 | 2.62238 | 35822 ft | 464 kts | 329° |
| 2026-05-05 14:51 | 49.34535 | 2.57267 | 35826 ft | 464 kts | 329° |
| 2026-05-05 14:51 | 49.40128 | 2.52273 | 35836 ft | 465 kts | 329° |
| 2026-05-05 14:52 | 49.45691 | 2.47293 | 35842 ft | 465 kts | 329° |
| 2026-05-05 14:52 | 49.51296 | 2.42263 | 35848 ft | 466 kts | 329° |
| 2026-05-05 14:53 | 49.56954 | 2.37399 | 35851 ft | 466 kts | 331° |
| 2026-05-05 14:53 | 49.62657 | 2.32632 | 35852 ft | 466 kts | 330° |
| 2026-05-05 14:54 | 49.68345 | 2.27826 | 35855 ft | 466 kts | 330° |
| 2026-05-05 14:54 | 49.74004 | 2.23013 | 35858 ft | 467 kts | 330° |
| 2026-05-05 14:55 | 49.79694 | 2.18157 | 35863 ft | 467 kts | 330° |
| 2026-05-05 14:55 | 49.85379 | 2.13293 | 35853 ft | 465 kts | 330° |
| 2026-05-05 14:56 | 49.91036 | 2.08440 | 35855 ft | 465 kts | 330° |
| 2026-05-05 14:56 | 49.96690 | 2.03577 | 35861 ft | 464 kts | 330° |
| 2026-05-05 14:57 | 50.02335 | 1.98707 | 35864 ft | 464 kts | 330° |
| 2026-05-05 14:57 | 50.07971 | 1.93833 | 35869 ft | 463 kts | 330° |
| 2026-05-05 14:58 | 50.13595 | 1.88953 | 35874 ft | 463 kts | 329° |
| 2026-05-05 14:58 | 50.18794 | 1.83195 | 35877 ft | 460 kts | 317° |
| 2026-05-05 14:59 | 50.23398 | 1.76292 | 35856 ft | 459 kts | 314° |
| 2026-05-05 14:59 | 50.25698 | 1.72810 | 35596 ft | 459 kts | 314° |
| 2026-05-05 14:59 | 50.27994 | 1.69330 | 35076 ft | 460 kts | 314° |
| 2026-05-05 15:00 | 50.30292 | 1.65831 | 34445 ft | 460 kts | 314° |
| 2026-05-05 15:00 | 50.31802 | 1.63526 | 33970 ft | 456 kts | 314° |
| 2026-05-05 15:00 | 50.34820 | 1.58905 | 32869 ft | 452 kts | 314° |
| 2026-05-05 15:00 | 50.37057 | 1.55470 | 32078 ft | 459 kts | 314° |
| 2026-05-05 15:01 | 50.39354 | 1.51936 | 31296 ft | 465 kts | 314° |
| 2026-05-05 15:01 | 50.41672 | 1.48367 | 30539 ft | 467 kts | 314° |
| 2026-05-05 15:01 | 50.43984 | 1.44802 | 29771 ft | 465 kts | 314° |
| 2026-05-05 15:01 | 50.46276 | 1.41264 | 28924 ft | 460 kts | 314° |
| 2026-05-05 15:02 | 50.48514 | 1.37805 | 28109 ft | 453 kts | 314° |
| 2026-05-05 15:02 | 50.50727 | 1.34330 | 27301 ft | 446 kts | 312° |
| 2026-05-05 15:02 | 50.52829 | 1.30792 | 26530 ft | 439 kts | 311° |
| 2026-05-05 15:02 | 50.54871 | 1.27262 | 25775 ft | 434 kts | 310° |
| 2026-05-05 15:03 | 50.56892 | 1.23764 | 25042 ft | 428 kts | 311° |
| 2026-05-05 15:03 | 50.58902 | 1.20349 | 24322 ft | 422 kts | 312° |
| 2026-05-05 15:03 | 50.60948 | 1.17084 | 23628 ft | 416 kts | 314° |
| 2026-05-05 15:03 | 50.62966 | 1.13942 | 22838 ft | 410 kts | 314° |
| 2026-05-05 15:04 | 50.64983 | 1.10797 | 22038 ft | 404 kts | 314° |
| 2026-05-05 15:04 | 50.66959 | 1.07696 | 21255 ft | 398 kts | 314° |
| 2026-05-05 15:04 | 50.68907 | 1.04620 | 20492 ft | 394 kts | 314° |
| 2026-05-05 15:04 | 50.70835 | 1.01563 | 19802 ft | 391 kts | 315° |
| 2026-05-05 15:05 | 50.74653 | 0.95489 | 18823 ft | 387 kts | 315° |
| 2026-05-05 15:05 | 50.76543 | 0.92477 | 18356 ft | 384 kts | 315° |
| 2026-05-05 15:05 | 50.78395 | 0.89523 | 18200 ft | 376 kts | 315° |
| 2026-05-05 15:06 | 50.80254 | 0.86558 | 18092 ft | 383 kts | 315° |
| 2026-05-05 15:06 | 50.82128 | 0.83564 | 17982 ft | 382 kts | 315° |
| 2026-05-05 15:06 | 50.83987 | 0.80591 | 17939 ft | 379 kts | 315° |
| 2026-05-05 15:06 | 50.85822 | 0.77651 | 17936 ft | 380 kts | 315° |
| 2026-05-05 15:07 | 50.87678 | 0.74676 | 17937 ft | 380 kts | 315° |
| 2026-05-05 15:07 | 50.89534 | 0.71695 | 17935 ft | 379 kts | 315° |
| 2026-05-05 15:07 | 50.91392 | 0.68708 | 17933 ft | 379 kts | 315° |
| 2026-05-05 15:07 | 50.93243 | 0.65728 | 17937 ft | 379 kts | 315° |
| 2026-05-05 15:08 | 50.95091 | 0.62748 | 17937 ft | 379 kts | 315° |
| 2026-05-05 15:08 | 50.96935 | 0.59774 | 17935 ft | 378 kts | 315° |
| 2026-05-05 15:08 | 50.98776 | 0.56802 | 18046 ft | 378 kts | 315° |
| 2026-05-05 15:08 | 51.00618 | 0.53824 | 18015 ft | 378 kts | 315° |
| 2026-05-05 15:09 | 51.02434 | 0.50883 | 17703 ft | 378 kts | 315° |
| 2026-05-05 15:09 | 51.04278 | 0.47893 | 17111 ft | 378 kts | 315° |
| 2026-05-05 15:09 | 51.06108 | 0.44922 | 16464 ft | 371 kts | 315° |
| 2026-05-05 15:09 | 51.07908 | 0.42029 | 15842 ft | 364 kts | 316° |
| 2026-05-05 15:10 | 51.09716 | 0.39262 | 15315 ft | 359 kts | 317° |
| 2026-05-05 15:10 | 51.11538 | 0.36522 | 14824 ft | 362 kts | 318° |
| 2026-05-05 15:10 | 51.13358 | 0.33777 | 14348 ft | 359 kts | 317° |
| 2026-05-05 15:10 | 51.15165 | 0.31040 | 13852 ft | 356 kts | 317° |
| 2026-05-05 15:11 | 51.16955 | 0.28312 | 13338 ft | 356 kts | 317° |
| 2026-05-05 15:11 | 51.18741 | 0.25581 | 12796 ft | 355 kts | 317° |
| 2026-05-05 15:11 | 51.20517 | 0.22857 | 12257 ft | 351 kts | 317° |
| 2026-05-05 15:11 | 51.22228 | 0.20227 | 11737 ft | 341 kts | 317° |
| 2026-05-05 15:12 | 51.23913 | 0.17639 | 11108 ft | 331 kts | 316° |
| 2026-05-05 15:12 | 51.25551 | 0.15119 | 10618 ft | 323 kts | 316° |
| 2026-05-05 15:12 | 51.27146 | 0.12665 | 10131 ft | 315 kts | 316° |
| 2026-05-05 15:12 | 51.28707 | 0.10260 | 9628 ft | 307 kts | 316° |
| 2026-05-05 15:13 | 51.30225 | 0.07914 | 9093 ft | 300 kts | 316° |
| 2026-05-05 15:13 | 51.31216 | 0.06384 | 8746 ft | 296 kts | 316° |
| 2026-05-05 15:13 | 51.32545 | 0.03929 | 8222 ft | 290 kts | 301° |
| 2026-05-05 15:13 | 51.33235 | 0.00939 | 7722 ft | 287 kts | 279° |
| 2026-05-05 15:14 | 51.33418 | -0.02205 | 7280 ft | 280 kts | 276° |
| 2026-05-05 15:14 | 51.33573 | -0.05200 | 7162 ft | 261 kts | 276° |
| 2026-05-05 15:14 | 51.33720 | -0.08008 | 7054 ft | 244 kts | 277° |
| 2026-05-05 15:14 | 51.33865 | -0.10698 | 6941 ft | 241 kts | 277° |
| 2026-05-05 15:15 | 51.34015 | -0.13409 | 6964 ft | 244 kts | 277° |
| 2026-05-05 15:15 | 51.34160 | -0.16075 | 6965 ft | 244 kts | 277° |
| 2026-05-05 15:15 | 51.34306 | -0.18785 | 6957 ft | 244 kts | 277° |
| 2026-05-05 15:15 | 51.34451 | -0.21489 | 6954 ft | 243 kts | 277° |
| 2026-05-05 15:16 | 51.34597 | -0.24186 | 6958 ft | 244 kts | 276° |
| 2026-05-05 15:16 | 51.34742 | -0.26896 | 6962 ft | 244 kts | 276° |
| 2026-05-05 15:16 | 51.34888 | -0.29602 | 6956 ft | 244 kts | 276° |
| 2026-05-05 15:16 | 51.35032 | -0.32307 | 6960 ft | 244 kts | 276° |
| 2026-05-05 15:17 | 51.35175 | -0.35013 | 6957 ft | 244 kts | 276° |
| 2026-05-05 15:17 | 51.35317 | -0.37716 | 6959 ft | 244 kts | 276° |
| 2026-05-05 15:17 | 51.35459 | -0.40418 | 6965 ft | 244 kts | 276° |
| 2026-05-05 15:17 | 51.35600 | -0.43133 | 6962 ft | 244 kts | 276° |
| 2026-05-05 15:18 | 51.35740 | -0.45847 | 6968 ft | 244 kts | 276° |
| 2026-05-05 15:18 | 51.35877 | -0.48522 | 6958 ft | 244 kts | 276° |
| 2026-05-05 15:18 | 51.36018 | -0.51239 | 6791 ft | 246 kts | 276° |
| 2026-05-05 15:18 | 51.36159 | -0.53976 | 6424 ft | 247 kts | 276° |
| 2026-05-05 15:19 | 51.36298 | -0.56713 | 6039 ft | 247 kts | 276° |
| 2026-05-05 15:19 | 51.36436 | -0.59455 | 5649 ft | 247 kts | 276° |
| 2026-05-05 15:19 | 51.36577 | -0.62197 | 5268 ft | 247 kts | 277° |
| 2026-05-05 15:19 | 51.36714 | -0.64939 | 4873 ft | 246 kts | 276° |
| 2026-05-05 15:20 | 51.36848 | -0.67641 | 4480 ft | 241 kts | 276° |
| 2026-05-05 15:20 | 51.36978 | -0.70285 | 4097 ft | 236 kts | 276° |
| 2026-05-05 15:20 | 51.37104 | -0.72881 | 3715 ft | 231 kts | 277° |
| 2026-05-05 15:20 | 51.37336 | -0.75309 | 3569 ft | 210 kts | 296° |
| 2026-05-05 15:21 | 51.38148 | -0.77124 | 3510 ft | 204 kts | 322° |
| 2026-05-05 15:21 | 51.39303 | -0.78273 | 3502 ft | 185 kts | 339° |
| 2026-05-05 15:21 | 51.40450 | -0.78829 | 3490 ft | 160 kts | 351° |
| 2026-05-05 15:21 | 51.41493 | -0.79073 | 3497 ft | 148 kts | 356° |
| 2026-05-05 15:22 | 51.42538 | -0.79190 | 3499 ft | 148 kts | 358° |
| 2026-05-05 15:22 | 51.43520 | -0.79181 | 3336 ft | 142 kts | 14° |
| 2026-05-05 15:22 | 51.44371 | -0.78435 | 3128 ft | 137 kts | 38° |
| 2026-05-05 15:22 | 51.45079 | -0.77446 | 3018 ft | 136 kts | 42° |
| 2026-05-05 15:23 | 51.45770 | -0.76409 | 3001 ft | 136 kts | 43° |
| 2026-05-05 15:23 | 51.46461 | -0.75338 | 2997 ft | 139 kts | 45° |
| 2026-05-05 15:23 | 51.47040 | -0.74124 | 2999 ft | 138 kts | 58° |
| 2026-05-05 15:23 | 51.47414 | -0.72692 | 3003 ft | 140 kts | 72° |
| 2026-05-05 15:24 | 51.47596 | -0.71160 | 2995 ft | 141 kts | 81° |
| 2026-05-05 15:24 | 51.47664 | -0.69581 | 2996 ft | 141 kts | 85° |
| 2026-05-05 15:24 | 51.47678 | -0.68013 | 2998 ft | 140 kts | 86° |
| 2026-05-05 15:24 | 51.47682 | -0.66440 | 2970 ft | 141 kts | 87° |
| 2026-05-05 15:25 | 51.47659 | -0.64845 | 2755 ft | 142 kts | 88° |
| 2026-05-05 15:25 | 51.47620 | -0.63282 | 2509 ft | 140 kts | 89° |
| 2026-05-05 15:25 | 51.47592 | -0.61721 | 2223 ft | 140 kts | 87° |
| 2026-05-05 15:25 | 51.47616 | -0.60185 | 1942 ft | 140 kts | 84° |
| 2026-05-05 15:26 | 51.47673 | -0.58610 | 1635 ft | 140 kts | 84° |
| 2026-05-05 15:26 | 51.47709 | -0.57059 | 1259 ft | 143 kts | 87° |
| 2026-05-05 15:26 | 51.47696 | -0.55490 | 969 ft | 139 kts | 86° |
| 2026-05-05 15:26 | 51.47709 | -0.53976 | 737 ft | 134 kts | 85° |
| 2026-05-05 15:27 | 51.47730 | -0.52422 | 564 ft | 139 kts | 87° |
| 2026-05-05 15:27 | 51.47733 | -0.50862 | 364 ft | 139 kts | 87° |
| 2026-05-05 15:27 | 51.47741 | -0.49297 | 211 ft | 143 kts | 87° |
| 2026-05-05 15:27 | 51.47755 | -0.47711 | 90 ft | 134 kts | 89° |
| 2026-05-05 15:28 | 51.47758 | -0.46537 | 92 ft | 76 kts | 90° |
| 2026-05-05 15:28 | 51.47756 | -0.45865 | 88 ft | 45 kts | 89° |
| 2026-05-05 15:28 | 51.47745 | -0.45514 | 86 ft | 23 kts | 122° |
| 2026-05-05 15:28 | 51.47677 | -0.45471 | 88 ft | 1 kts | 181° |
| 2026-05-05 15:29 | 51.47661 | -0.45471 | 86 ft | 4 kts | 181° |
| 2026-05-05 15:29 | 51.47654 | -0.45471 | 86 ft | 2 kts | 180° |
| 2026-05-05 15:30 | 51.47651 | -0.45471 | 86 ft | 2 kts | 179° |
| 2026-05-05 15:30 | 51.47622 | -0.45468 | 86 ft | 6 kts | 169° |
| 2026-05-05 15:31 | 51.47595 | -0.45409 | 87 ft | 8 kts | 99° |
| 2026-05-05 15:31 | 51.47596 | -0.45302 | 88 ft | 11 kts | 89° |
| 2026-05-05 15:31 | 51.47597 | -0.45166 | 87 ft | 13 kts | 90° |
| 2026-05-05 15:31 | 51.47597 | -0.45075 | 87 ft | 0 kts | 90° |
| 2026-05-05 15:32 | 51.47597 | -0.45073 | 87 ft | 1 kts | 90° |
| 2026-05-05 15:32 | 51.47597 | -0.45032 | 87 ft | 6 kts | 90° |
| 2026-05-05 15:33 | 51.47597 | -0.44952 | 87 ft | 9 kts | 90° |
| 2026-05-05 15:33 | 51.47598 | -0.44845 | 87 ft | 9 kts | 89° |
| 2026-05-05 15:33 | 51.47598 | -0.44734 | 87 ft | 11 kts | 89° |
| 2026-05-05 15:33 | 51.47546 | -0.44664 | 88 ft | 12 kts | 185° |
| 2026-05-05 15:34 | 51.47510 | -0.44772 | 88 ft | 13 kts | 269° |
| 2026-05-05 15:34 | 51.47510 | -0.44857 | 88 ft | 6 kts | 270° |
| 2026-05-05 15:34 | 51.47510 | -0.44944 | 90 ft | 9 kts | 270° |
| 2026-05-05 15:34 | 51.47509 | -0.45059 | 90 ft | 12 kts | 268° |
| 2026-05-05 15:35 | 51.47508 | -0.45200 | 90 ft | 14 kts | 270° |
| 2026-05-05 15:35 | 51.47508 | -0.45366 | 90 ft | 16 kts | 270° |
| 2026-05-05 15:35 | 51.47507 | -0.45553 | 90 ft | 18 kts | 269° |
| 2026-05-05 15:35 | 51.47515 | -0.45756 | 88 ft | 19 kts | 281° |
| 2026-05-05 15:36 | 51.47516 | -0.45975 | 86 ft | 20 kts | 270° |
| 2026-05-05 15:36 | 51.47516 | -0.46209 | 86 ft | 22 kts | 270° |
| 2026-05-05 15:36 | 51.47515 | -0.46454 | 86 ft | 23 kts | 270° |
| 2026-05-05 15:36 | 51.47514 | -0.46705 | 86 ft | 15 kts | 267° |
| 2026-05-05 15:37 | 51.47494 | -0.46834 | 86 ft | 13 kts | 269° |
| 2026-05-05 15:37 | 51.47492 | -0.46986 | 86 ft | 15 kts | 269° |
| 2026-05-05 15:37 | 51.47491 | -0.47161 | 86 ft | 17 kts | 269° |
| 2026-05-05 15:37 | 51.47490 | -0.47343 | 86 ft | 6 kts | 270° |
| 2026-05-05 15:38 | 51.47491 | -0.47418 | 86 ft | 8 kts | 270° |
| 2026-05-05 15:38 | 51.47490 | -0.47522 | 86 ft | 11 kts | 269° |
| 2026-05-05 15:38 | 51.47490 | -0.47640 | 86 ft | 11 kts | 270° |
| 2026-05-05 15:38 | 51.47489 | -0.47778 | 86 ft | 12 kts | 270° |
| 2026-05-05 15:39 | 51.47489 | -0.47904 | 86 ft | 6 kts | 270° |
| 2026-05-05 15:39 | 51.47489 | -0.47984 | 86 ft | 9 kts | 270° |
| 2026-05-05 15:39 | 51.47488 | -0.48065 | 87 ft | 8 kts | 270° |
| 2026-05-05 15:39 | 51.47488 | -0.48170 | 88 ft | 11 kts | 270° |
| 2026-05-05 15:40 | 51.47488 | -0.48301 | 89 ft | 12 kts | 269° |
| 2026-05-05 15:40 | 51.47487 | -0.48434 | 89 ft | 11 kts | 266° |
| 2026-05-05 15:40 | 51.47467 | -0.48471 | 90 ft | 0 kts | 211° |
| 2026-05-05 15:41 | 51.47450 | -0.48474 | 89 ft | 6 kts | 183° |
| 2026-05-05 15:41 | 51.47388 | -0.48477 | 86 ft | 10 kts | 179° |
| 2026-05-05 15:41 | 51.47343 | -0.48477 | 86 ft | 1 kts | 180° |
| 2026-05-05 15:41 | 51.47326 | -0.48477 | 86 ft | 4 kts | 180° |
| 2026-05-05 15:42 | 51.47282 | -0.48477 | 86 ft | 9 kts | 178° |
| 2026-05-05 15:42 | 51.47214 | -0.48474 | 86 ft | 11 kts | 180° |
| 2026-05-05 15:42 | 51.47141 | -0.48477 | 86 ft | 9 kts | 193° |
| 2026-05-05 15:42 | 51.47132 | -0.48529 | 87 ft | 0 kts | 271° |
| 2026-05-05 15:43 | 51.47132 | -0.48540 | 88 ft | 3 kts | 271° |
| 2026-05-05 15:43 | 51.47133 | -0.48575 | 87 ft | 5 kts | 273° |
| 2026-05-05 15:43 | 51.47133 | -0.48604 | 90 ft | 2 kts | 269° |
| 2026-05-05 15:43 | 51.47133 | -0.48617 | 87 ft | 1 kts | 269° |
| 2026-05-05 15:44 | 51.47133 | -0.48622 | 87 ft | 0 kts | 269° |